sensor_id;sensor_type;location;lat;lon;timestamp;pressure;altitude;pressure_sealevel;temperature;humidity
34177;BME280;20450;49.074;9.158;2023-07-02T00:02:05;99145.13;;;19.33;75.94
34177;BME280;20450;49.074;9.158;2023-07-02T00:04:39;99146.47;;;19.36;75.98
34177;BME280;20450;49.074;9.158;2023-07-02T00:07:39;99140.78;;;19.27;76.19
34177;BME280;20450;49.074;9.158;2023-07-02T00:10:40;99146.25;;;19.22;76.08
34177;BME280;20450;49.074;9.158;2023-07-02T00:13:43;99139.44;;;19.20;76.24
34177;BME280;20450;49.074;9.158;2023-07-02T00:16:50;99144.63;;;19.16;76.00
34177;BME280;20450;49.074;9.158;2023-07-02T00:19:38;99146.03;;;19.14;76.37
34177;BME280;20450;49.074;9.158;2023-07-02T00:23:02;99159.47;;;19.10;76.50
34177;BME280;20450;49.074;9.158;2023-07-02T00:26:10;99153.19;;;19.05;76.45
34177;BME280;20450;49.074;9.158;2023-07-02T00:29:40;99147.16;;;19.08;76.76
34177;BME280;20450;49.074;9.158;2023-07-02T00:33:09;99146.38;;;19.02;76.68
34177;BME280;20450;49.074;9.158;2023-07-02T00:36:49;99144.47;;;19.03;76.68
34177;BME280;20450;49.074;9.158;2023-07-02T00:39:51;99145.25;;;19.03;76.66
34177;BME280;20450;49.074;9.158;2023-07-02T00:42:44;99157.03;;;19.09;76.79
34177;BME280;20450;49.074;9.158;2023-07-02T00:45:23;99158.38;;;19.11;76.63
34177;BME280;20450;49.074;9.158;2023-07-02T00:48:09;99160.81;;;19.13;76.48
34177;BME280;20450;49.074;9.158;2023-07-02T00:50:48;99156.16;;;19.13;76.49
34177;BME280;20450;49.074;9.158;2023-07-02T00:57:47;99152.06;;;19.11;76.08
34177;BME280;20450;49.074;9.158;2023-07-02T01:00:33;99157.31;;;19.07;76.08
34177;BME280;20450;49.074;9.158;2023-07-02T01:07:33;99164.16;;;19.05;75.85
34177;BME280;20450;49.074;9.158;2023-07-02T01:10:42;99170.19;;;19.02;76.00
34177;BME280;20450;49.074;9.158;2023-07-02T01:14:38;99157.06;;;18.99;75.61
34177;BME280;20450;49.074;9.158;2023-07-02T01:17:35;99159.56;;;18.95;76.00
34177;BME280;20450;49.074;9.158;2023-07-02T01:20:53;99154.88;;;18.96;75.85
34177;BME280;20450;49.074;9.158;2023-07-02T01:23:54;99152.97;;;18.96;75.72
34177;BME280;20450;49.074;9.158;2023-07-02T01:27:20;99149.66;;;18.99;75.39
34177;BME280;20450;49.074;9.158;2023-07-02T01:30:14;99154.59;;;19.02;75.45
34177;BME280;20450;49.074;9.158;2023-07-02T01:33:02;99158.66;;;19.05;75.59
34177;BME280;20450;49.074;9.158;2023-07-02T01:36:12;99155.91;;;19.10;75.23
34177;BME280;20450;49.074;9.158;2023-07-02T01:38:58;99147.69;;;19.10;75.04
34177;BME280;20450;49.074;9.158;2023-07-02T01:42:20;99149.59;;;19.14;75.00
34177;BME280;20450;49.074;9.158;2023-07-02T01:45:19;99156.47;;;19.12;74.90
34177;BME280;20450;49.074;9.158;2023-07-02T01:48:10;99162.00;;;18.97;75.05
34177;BME280;20450;49.074;9.158;2023-07-02T01:50:37;99167.22;;;18.88;75.52
34177;BME280;20450;49.074;9.158;2023-07-02T01:53:06;99165.88;;;18.86;75.64
34177;BME280;20450;49.074;9.158;2023-07-02T01:55:34;99166.72;;;18.86;75.71
34177;BME280;20450;49.074;9.158;2023-07-02T01:58:06;99169.97;;;18.88;75.69
34177;BME280;20450;49.074;9.158;2023-07-02T02:00:54;99176.53;;;18.92;75.47
34177;BME280;20450;49.074;9.158;2023-07-02T02:03:22;99174.88;;;18.91;75.65
34177;BME280;20450;49.074;9.158;2023-07-02T02:05:49;99179.50;;;18.96;75.29
34177;BME280;20450;49.074;9.158;2023-07-02T02:08:20;99179.50;;;18.96;75.26
34177;BME280;20450;49.074;9.158;2023-07-02T02:10:47;99173.75;;;18.97;75.45
34177;BME280;20450;49.074;9.158;2023-07-02T02:13:15;99184.97;;;19.01;75.17
34177;BME280;20450;49.074;9.158;2023-07-02T02:15:42;99189.59;;;19.05;75.35
34177;BME280;20450;49.074;9.158;2023-07-02T02:18:09;99193.69;;;19.08;75.28
34177;BME280;20450;49.074;9.158;2023-07-02T02:20:36;99182.19;;;19.11;75.25
34177;BME280;20450;49.074;9.158;2023-07-02T02:23:03;99182.72;;;19.13;74.96
34177;BME280;20450;49.074;9.158;2023-07-02T02:25:32;99187.66;;;19.16;74.99
34177;BME280;20450;49.074;9.158;2023-07-02T02:28:00;99190.91;;;19.18;75.11
34177;BME280;20450;49.074;9.158;2023-07-02T02:30:27;99191.72;;;19.18;75.06
34177;BME280;20450;49.074;9.158;2023-07-02T02:32:54;99197.22;;;19.13;75.11
34177;BME280;20450;49.074;9.158;2023-07-02T02:35:22;99194.53;;;19.08;75.58
34177;BME280;20450;49.074;9.158;2023-07-02T02:37:50;99207.16;;;18.94;76.04
34177;BME280;20450;49.074;9.158;2023-07-02T02:40:17;99200.06;;;18.88;75.02
34177;BME280;20450;49.074;9.158;2023-07-02T02:42:46;99200.09;;;18.83;75.01
34177;BME280;20450;49.074;9.158;2023-07-02T02:45:13;99208.31;;;18.83;75.78
34177;BME280;20450;49.074;9.158;2023-07-02T02:47:45;99205.03;;;18.86;75.32
34177;BME280;20450;49.074;9.158;2023-07-02T02:50:13;99199.03;;;18.69;71.59
34177;BME280;20450;49.074;9.158;2023-07-02T02:52:40;99204.78;;;18.68;71.78
34177;BME280;20450;49.074;9.158;2023-07-02T02:55:09;99197.69;;;18.62;71.48
34177;BME280;20450;49.074;9.158;2023-07-02T02:57:38;99191.97;;;18.58;70.90
34177;BME280;20450;49.074;9.158;2023-07-02T03:00:07;99189.75;;;18.60;71.40
34177;BME280;20450;49.074;9.158;2023-07-02T03:02:35;99191.66;;;18.65;71.21
34177;BME280;20450;49.074;9.158;2023-07-02T03:05:03;99191.38;;;18.71;71.19
34177;BME280;20450;49.074;9.158;2023-07-02T03:07:31;99199.56;;;18.76;70.70
34177;BME280;20450;49.074;9.158;2023-07-02T03:09:58;99193.28;;;18.76;71.02
34177;BME280;20450;49.074;9.158;2023-07-02T03:12:36;99201.47;;;18.81;71.11
34177;BME280;20450;49.074;9.158;2023-07-02T03:15:21;99209.66;;;18.81;71.81
34177;BME280;20450;49.074;9.158;2023-07-02T03:17:52;99202.84;;;18.83;71.77
34177;BME280;20450;49.074;9.158;2023-07-02T03:20:24;99213.78;;;18.83;71.54
34177;BME280;20450;49.074;9.158;2023-07-02T03:22:53;99216.81;;;18.77;71.33
34177;BME280;20450;49.074;9.158;2023-07-02T03:25:20;99214.34;;;18.70;71.79
34177;BME280;20450;49.074;9.158;2023-07-02T03:27:48;99220.41;;;18.62;72.36
34177;BME280;20450;49.074;9.158;2023-07-02T03:30:15;99224.25;;;18.61;71.94
34177;BME280;20450;49.074;9.158;2023-07-02T03:32:44;99228.06;;;18.60;71.95
34177;BME280;20450;49.074;9.158;2023-07-02T03:35:11;99229.44;;;18.53;72.33
34177;BME280;20450;49.074;9.158;2023-07-02T03:37:38;99231.34;;;18.57;72.43
34177;BME280;20450;49.074;9.158;2023-07-02T03:40:06;99228.34;;;18.59;72.01
34177;BME280;20450;49.074;9.158;2023-07-02T03:42:34;99232.44;;;18.51;72.36
34177;BME280;20450;49.074;9.158;2023-07-02T03:45:01;99228.91;;;18.46;72.06
34177;BME280;20450;49.074;9.158;2023-07-02T03:47:28;99228.63;;;18.47;71.68
34177;BME280;20450;49.074;9.158;2023-07-02T03:49:56;99228.63;;;18.47;71.55
34177;BME280;20450;49.074;9.158;2023-07-02T03:52:23;99232.19;;;18.48;71.45
34177;BME280;20450;49.074;9.158;2023-07-02T03:54:50;99238.47;;;18.48;71.14
34177;BME280;20450;49.074;9.158;2023-07-02T03:57:17;99243.94;;;18.33;70.59
34177;BME280;20450;49.074;9.158;2023-07-02T03:59:44;99241.47;;;18.12;71.66
34177;BME280;20450;49.074;9.158;2023-07-02T04:02:12;99237.66;;;17.93;71.92
34177;BME280;20450;49.074;9.158;2023-07-02T04:04:40;99240.38;;;17.98;71.79
34177;BME280;20450;49.074;9.158;2023-07-02T04:07:08;99242.31;;;17.97;71.68
34177;BME280;20450;49.074;9.158;2023-07-02T04:09:35;99246.38;;;17.95;71.83
34177;BME280;20450;49.074;9.158;2023-07-02T04:12:02;99252.13;;;17.88;71.59
34177;BME280;20450;49.074;9.158;2023-07-02T04:14:30;99254.84;;;17.93;71.46
34177;BME280;20450;49.074;9.158;2023-07-02T04:16:57;99266.63;;;17.99;71.66
34177;BME280;20450;49.074;9.158;2023-07-02T04:19:24;99255.69;;;17.94;71.98
34177;BME280;20450;49.074;9.158;2023-07-02T04:21:51;99268.78;;;17.87;72.29
34177;BME280;20450;49.074;9.158;2023-07-02T04:24:20;99277.81;;;17.82;72.76
34177;BME280;20450;49.074;9.158;2023-07-02T04:26:47;99276.06;;;17.46;74.57
34177;BME280;20450;49.074;9.158;2023-07-02T04:29:34;99272.75;;;17.39;74.61
34177;BME280;20450;49.074;9.158;2023-07-02T04:32:01;99278.72;;;17.41;74.90
34177;BME280;20450;49.074;9.158;2023-07-02T04:34:28;99279.78;;;17.25;75.62
34177;BME280;20450;49.074;9.158;2023-07-02T04:36:55;99284.16;;;17.31;75.75
34177;BME280;20450;49.074;9.158;2023-07-02T04:39:24;99281.16;;;17.32;75.67
34177;BME280;20450;49.074;9.158;2023-07-02T04:41:51;99280.59;;;17.30;75.41
34177;BME280;20450;49.074;9.158;2023-07-02T04:44:18;99288.56;;;17.37;75.41
34177;BME280;20450;49.074;9.158;2023-07-02T04:46:45;99285.25;;;17.30;75.59
34177;BME280;20450;49.074;9.158;2023-07-02T04:49:12;99287.25;;;17.44;74.65
34177;BME280;20450;49.074;9.158;2023-07-02T04:51:39;99288.38;;;17.53;74.41
34177;BME280;20450;49.074;9.158;2023-07-02T04:54:06;99287.06;;;17.71;73.95
34177;BME280;20450;49.074;9.158;2023-07-02T04:56:34;99299.09;;;17.70;74.40
34177;BME280;20450;49.074;9.158;2023-07-02T04:59:02;99296.34;;;17.70;74.13
34177;BME280;20450;49.074;9.158;2023-07-02T05:01:29;99298.56;;;17.83;74.01
34177;BME280;20450;49.074;9.158;2023-07-02T05:03:56;99305.97;;;18.03;73.42
34177;BME280;20450;49.074;9.158;2023-07-02T05:06:23;99305.97;;;18.03;73.43
34177;BME280;20450;49.074;9.158;2023-07-02T05:08:50;99295.63;;;18.05;73.29
34177;BME280;20450;49.074;9.158;2023-07-02T05:11:17;99304.63;;;18.00;73.05
34177;BME280;20450;49.074;9.158;2023-07-02T05:13:46;99304.06;;;17.88;73.89
34177;BME280;20450;49.074;9.158;2023-07-02T05:16:13;99310.09;;;18.00;73.54
34177;BME280;20450;49.074;9.158;2023-07-02T05:18:40;99306.81;;;18.03;73.51
34177;BME280;20450;49.074;9.158;2023-07-02T05:21:07;99313.66;;;18.16;73.25
34177;BME280;20450;49.074;9.158;2023-07-02T05:23:35;99319.13;;;18.26;72.64
34177;BME280;20450;49.074;9.158;2023-07-02T05:26:01;99321.56;;;18.07;72.69
34177;BME280;20450;49.074;9.158;2023-07-02T05:28:29;99327.34;;;18.21;72.25
34177;BME280;20450;49.074;9.158;2023-07-02T05:30:57;99322.16;;;18.39;71.56
34177;BME280;20450;49.074;9.158;2023-07-02T05:33:25;99324.09;;;18.49;71.31
34177;BME280;20450;49.074;9.158;2023-07-02T05:35:52;99315.09;;;18.43;71.21
34177;BME280;20450;49.074;9.158;2023-07-02T05:38:21;99315.34;;;18.57;70.88
34177;BME280;20450;49.074;9.158;2023-07-02T05:40:47;99322.44;;;18.73;69.35
34177;BME280;20450;49.074;9.158;2023-07-02T05:43:16;99321.06;;;18.90;68.89
34177;BME280;20450;49.074;9.158;2023-07-02T05:45:43;99319.13;;;19.06;67.94
34177;BME280;20450;49.074;9.158;2023-07-02T05:48:11;99329.50;;;19.09;67.00
34177;BME280;20450;49.074;9.158;2023-07-02T05:50:41;99330.00;;;19.26;67.12
34177;BME280;20450;49.074;9.158;2023-07-02T05:53:08;99328.91;;;19.32;65.84
34177;BME280;20450;49.074;9.158;2023-07-02T05:55:35;99334.91;;;19.39;64.59
34177;BME280;20450;49.074;9.158;2023-07-02T05:58:04;99336.03;;;19.23;64.16
34177;BME280;20450;49.074;9.158;2023-07-02T06:00:31;99336.28;;;19.36;64.75
34177;BME280;20450;49.074;9.158;2023-07-02T06:02:58;99347.19;;;19.52;64.66
34177;BME280;20450;49.074;9.158;2023-07-02T06:05:27;99345.53;;;19.61;63.18
34177;BME280;20450;49.074;9.158;2023-07-02T06:07:55;99346.16;;;19.37;62.21
34177;BME280;20450;49.074;9.158;2023-07-02T06:10:22;99349.16;;;19.36;62.58
34177;BME280;20450;49.074;9.158;2023-07-02T06:12:49;99353.41;;;20.26;60.05
34177;BME280;20450;49.074;9.158;2023-07-02T06:15:16;99358.53;;;21.33;55.66
34177;BME280;20450;49.074;9.158;2023-07-02T06:17:44;99362.66;;;22.38;53.18
34177;BME280;20450;49.074;9.158;2023-07-02T06:20:12;99386.00;;;23.56;49.55
34177;BME280;20450;49.074;9.158;2023-07-02T06:22:41;99373.41;;;24.31;47.28
34177;BME280;20450;49.074;9.158;2023-07-02T06:25:08;99381.19;;;24.29;46.02
34177;BME280;20450;49.074;9.158;2023-07-02T06:27:35;99372.16;;;24.72;44.94
34177;BME280;20450;49.074;9.158;2023-07-02T06:30:02;99384.63;;;25.14;43.87
34177;BME280;20450;49.074;9.158;2023-07-02T06:32:30;99382.63;;;25.59;42.79
34177;BME280;20450;49.074;9.158;2023-07-02T06:34:59;99392.81;;;26.36;40.43
34177;BME280;20450;49.074;9.158;2023-07-02T06:37:28;99378.50;;;26.68;40.59
34177;BME280;20450;49.074;9.158;2023-07-02T06:39:56;99404.03;;;26.40;39.04
34177;BME280;20450;49.074;9.158;2023-07-02T06:42:24;99378.16;;;26.70;41.42
34177;BME280;20450;49.074;9.158;2023-07-02T06:44:51;99400.16;;;26.49;38.56
34177;BME280;20450;49.074;9.158;2023-07-02T06:47:19;99396.25;;;26.76;38.92
34177;BME280;20450;49.074;9.158;2023-07-02T06:49:47;99386.94;;;26.38;39.87
34177;BME280;20450;49.074;9.158;2023-07-02T06:52:16;99399.22;;;26.79;38.30
34177;BME280;20450;49.074;9.158;2023-07-02T06:54:44;99404.66;;;26.20;38.42
34177;BME280;20450;49.074;9.158;2023-07-02T06:57:14;99391.16;;;26.35;39.64
34177;BME280;20450;49.074;9.158;2023-07-02T06:59:48;99372.19;;;25.56;41.08
34177;BME280;20450;49.074;9.158;2023-07-02T07:02:17;99365.75;;;25.77;41.11
34177;BME280;20450;49.074;9.158;2023-07-02T07:04:46;99371.34;;;25.86;41.52
34177;BME280;20450;49.074;9.158;2023-07-02T07:07:14;99374.84;;;25.69;41.50
34177;BME280;20450;49.074;9.158;2023-07-02T07:09:42;99380.66;;;25.98;40.72
34177;BME280;20450;49.074;9.158;2023-07-02T07:12:10;99381.66;;;26.02;40.29
34177;BME280;20450;49.074;9.158;2023-07-02T07:14:43;99378.78;;;25.77;40.48
34177;BME280;20450;49.074;9.158;2023-07-02T07:17:15;99375.91;;;25.51;41.47
34177;BME280;20450;49.074;9.158;2023-07-02T07:19:46;99383.09;;;25.30;40.91
34177;BME280;20450;49.074;9.158;2023-07-02T07:22:14;99382.50;;;25.11;42.02
34177;BME280;20450;49.074;9.158;2023-07-02T07:24:45;99379.38;;;25.04;41.10
34177;BME280;20450;49.074;9.158;2023-07-02T07:27:13;99382.00;;;24.87;41.53
34177;BME280;20450;49.074;9.158;2023-07-02T07:29:40;99378.03;;;25.46;41.73
34177;BME280;20450;49.074;9.158;2023-07-02T07:32:12;99378.66;;;25.43;40.51
34177;BME280;20450;49.074;9.158;2023-07-02T07:34:41;99384.88;;;25.26;40.98
34177;BME280;20450;49.074;9.158;2023-07-02T07:37:12;99390.09;;;24.83;40.38
34177;BME280;20450;49.074;9.158;2023-07-02T07:39:43;99395.72;;;24.70;40.92
34177;BME280;20450;49.074;9.158;2023-07-02T07:42:25;99374.28;;;23.64;44.13
34177;BME280;20450;49.074;9.158;2023-07-02T07:44:54;99374.38;;;23.32;44.38
34177;BME280;20450;49.074;9.158;2023-07-02T07:47:24;99391.03;;;23.40;44.09
34177;BME280;20450;49.074;9.158;2023-07-02T07:49:52;99403.06;;;23.44;43.91
34177;BME280;20450;49.074;9.158;2023-07-02T07:52:24;99391.56;;;22.91;44.18
34177;BME280;20450;49.074;9.158;2023-07-02T07:54:54;99385.09;;;22.50;45.08
34177;BME280;20450;49.074;9.158;2023-07-02T07:57:22;99386.47;;;22.66;45.27
34177;BME280;20450;49.074;9.158;2023-07-02T07:59:51;99389.91;;;23.09;44.60
34177;BME280;20450;49.074;9.158;2023-07-02T08:02:26;99395.00;;;23.48;44.18
34177;BME280;20450;49.074;9.158;2023-07-02T08:04:55;99396.72;;;23.44;43.30
34177;BME280;20450;49.074;9.158;2023-07-02T08:07:24;99399.88;;;23.24;44.12
34177;BME280;20450;49.074;9.158;2023-07-02T08:09:52;99391.28;;;23.25;43.61
34177;BME280;20450;49.074;9.158;2023-07-02T08:12:23;99389.38;;;23.66;43.38
34177;BME280;20450;49.074;9.158;2023-07-02T08:14:53;99392.66;;;23.82;41.04
34177;BME280;20450;49.074;9.158;2023-07-02T08:17:21;99401.13;;;24.26;41.14
34177;BME280;20450;49.074;9.158;2023-07-02T08:19:51;99394.06;;;24.20;42.26
34177;BME280;20450;49.074;9.158;2023-07-02T08:22:19;99397.75;;;24.15;41.69
34177;BME280;20450;49.074;9.158;2023-07-02T08:24:46;99400.13;;;24.08;41.25
34177;BME280;20450;49.074;9.158;2023-07-02T08:27:13;99398.59;;;24.02;41.15
34177;BME280;20450;49.074;9.158;2023-07-02T08:29:40;99401.25;;;23.94;40.76
34177;BME280;20450;49.074;9.158;2023-07-02T08:35:16;99399.72;;;23.74;41.75
34177;BME280;20450;49.074;9.158;2023-07-02T08:37:46;99395.72;;;23.94;41.65
34177;BME280;20450;49.074;9.158;2023-07-02T08:40:18;99402.16;;;23.76;41.28
34177;BME280;20450;49.074;9.158;2023-07-02T08:43:01;99402.06;;;23.67;41.43
34177;BME280;20450;49.074;9.158;2023-07-02T08:45:35;99397.91;;;23.97;42.77
34177;BME280;20450;49.074;9.158;2023-07-02T08:48:10;99402.97;;;24.17;42.41
34177;BME280;20450;49.074;9.158;2023-07-02T08:50:44;99412.47;;;23.84;40.39
34177;BME280;20450;49.074;9.158;2023-07-02T08:53:13;99420.34;;;23.77;40.23
34177;BME280;20450;49.074;9.158;2023-07-02T08:55:41;99420.47;;;23.99;39.83
34177;BME280;20450;49.074;9.158;2023-07-02T08:58:10;99415.97;;;23.76;40.03
34177;BME280;20450;49.074;9.158;2023-07-02T09:00:38;99418.91;;;23.52;40.68
34177;BME280;20450;49.074;9.158;2023-07-02T09:03:12;99413.41;;;23.52;40.87
34177;BME280;20450;49.074;9.158;2023-07-02T09:05:51;99405.94;;;23.80;40.87
34177;BME280;20450;49.074;9.158;2023-07-02T09:08:23;99409.84;;;23.92;40.91
34177;BME280;20450;49.074;9.158;2023-07-02T09:10:52;99403.59;;;23.87;41.18
34177;BME280;20450;49.074;9.158;2023-07-02T09:13:21;99407.38;;;23.64;41.06
34177;BME280;20450;49.074;9.158;2023-07-02T09:15:52;99421.38;;;24.08;40.32
34177;BME280;20450;49.074;9.158;2023-07-02T09:18:27;99429.88;;;24.11;39.32
34177;BME280;20450;49.074;9.158;2023-07-02T09:20:58;99420.59;;;24.07;39.59
34177;BME280;20450;49.074;9.158;2023-07-02T09:23:34;99419.84;;;24.02;40.37
34177;BME280;20450;49.074;9.158;2023-07-02T09:26:23;99416.59;;;24.13;40.11
34177;BME280;20450;49.074;9.158;2023-07-02T09:29:00;99429.56;;;23.99;39.46
34177;BME280;20450;49.074;9.158;2023-07-02T09:31:27;99431.03;;;23.51;40.12
34177;BME280;20450;49.074;9.158;2023-07-02T09:34:01;99416.97;;;23.20;40.95
34177;BME280;20450;49.074;9.158;2023-07-02T09:36:30;99423.00;;;23.55;41.58
34177;BME280;20450;49.074;9.158;2023-07-02T09:38:58;99432.00;;;23.87;39.67
34177;BME280;20450;49.074;9.158;2023-07-02T09:41:27;99424.97;;;24.08;39.75
34177;BME280;20450;49.074;9.158;2023-07-02T09:43:54;99420.56;;;23.67;39.38
34177;BME280;20450;49.074;9.158;2023-07-02T09:46:22;99430.78;;;23.80;39.83
34177;BME280;20450;49.074;9.158;2023-07-02T09:48:53;99426.97;;;23.62;39.61
34177;BME280;20450;49.074;9.158;2023-07-02T09:51:21;99428.00;;;23.93;39.21
34177;BME280;20450;49.074;9.158;2023-07-02T09:53:51;99412.28;;;23.80;40.00
34177;BME280;20450;49.074;9.158;2023-07-02T09:56:19;99422.00;;;23.78;40.01
34177;BME280;20450;49.074;9.158;2023-07-02T09:58:47;99419.38;;;24.00;39.87
34177;BME280;20450;49.074;9.158;2023-07-02T10:01:14;99424.63;;;24.37;38.40
34177;BME280;20450;49.074;9.158;2023-07-02T10:03:41;99424.31;;;24.38;38.55
34177;BME280;20450;49.074;9.158;2023-07-02T10:06:08;99433.63;;;24.78;37.17
34177;BME280;20450;49.074;9.158;2023-07-02T10:08:36;99439.66;;;24.80;37.82
34177;BME280;20450;49.074;9.158;2023-07-02T10:11:11;99428.41;;;25.21;37.16
34177;BME280;20450;49.074;9.158;2023-07-02T10:13:40;99434.97;;;25.25;36.18
34177;BME280;20450;49.074;9.158;2023-07-02T10:16:07;99427.44;;;24.94;37.08
34177;BME280;20450;49.074;9.158;2023-07-02T10:18:34;99428.88;;;24.70;37.44
34177;BME280;20450;49.074;9.158;2023-07-02T10:21:12;99433.88;;;24.68;37.82
34177;BME280;20450;49.074;9.158;2023-07-02T10:23:40;99424.97;;;25.15;36.93
34177;BME280;20450;49.074;9.158;2023-07-02T10:26:14;99425.09;;;24.88;37.19
34177;BME280;20450;49.074;9.158;2023-07-02T10:28:43;99415.88;;;24.57;37.56
34177;BME280;20450;49.074;9.158;2023-07-02T10:31:22;99412.66;;;24.77;37.47
34177;BME280;20450;49.074;9.158;2023-07-02T10:33:49;99413.59;;;25.17;37.33
34177;BME280;20450;49.074;9.158;2023-07-02T10:36:20;99415.72;;;25.20;36.86
34177;BME280;20450;49.074;9.158;2023-07-02T10:38:48;99410.50;;;25.40;36.33
34177;BME280;20450;49.074;9.158;2023-07-02T10:41:34;99405.97;;;25.22;37.26
34177;BME280;20450;49.074;9.158;2023-07-02T10:44:08;99407.75;;;25.18;37.33
34177;BME280;20450;49.074;9.158;2023-07-02T10:46:43;99405.63;;;25.15;38.33
34177;BME280;20450;49.074;9.158;2023-07-02T10:49:11;99413.16;;;25.23;38.03
34177;BME280;20450;49.074;9.158;2023-07-02T10:51:38;99415.31;;;25.04;37.58
34177;BME280;20450;49.074;9.158;2023-07-02T10:54:05;99411.72;;;25.03;38.20
34177;BME280;20450;49.074;9.158;2023-07-02T10:56:33;99409.28;;;24.80;38.32
34177;BME280;20450;49.074;9.158;2023-07-02T10:59:01;99417.31;;;24.90;38.29
34177;BME280;20450;49.074;9.158;2023-07-02T11:01:29;99410.16;;;25.11;38.35
34177;BME280;20450;49.074;9.158;2023-07-02T11:03:59;99417.38;;;24.98;38.10
34177;BME280;20450;49.074;9.158;2023-07-02T11:06:28;99407.56;;;24.92;38.09
34177;BME280;20450;49.074;9.158;2023-07-02T11:08:57;99409.44;;;25.50;37.48
34177;BME280;20450;49.074;9.158;2023-07-02T11:11:24;99417.03;;;26.22;36.54
34177;BME280;20450;49.074;9.158;2023-07-02T11:13:53;99402.75;;;25.81;36.51
34177;BME280;20450;49.074;9.158;2023-07-02T11:16:22;99405.19;;;25.52;37.24
34177;BME280;20450;49.074;9.158;2023-07-02T11:18:50;99406.94;;;25.79;36.82
34177;BME280;20450;49.074;9.158;2023-07-02T11:21:18;99410.22;;;26.37;35.68
34177;BME280;20450;49.074;9.158;2023-07-02T11:23:49;99411.88;;;26.55;35.46
34177;BME280;20450;49.074;9.158;2023-07-02T11:26:16;99409.97;;;26.90;34.35
34177;BME280;20450;49.074;9.158;2023-07-02T11:28:50;99417.25;;;27.37;34.90
34177;BME280;20450;49.074;9.158;2023-07-02T11:31:28;99416.00;;;27.63;33.60
34177;BME280;20450;49.074;9.158;2023-07-02T11:33:57;99427.44;;;27.70;32.67
34177;BME280;20450;49.074;9.158;2023-07-02T11:36:24;99422.34;;;27.81;32.20
34177;BME280;20450;49.074;9.158;2023-07-02T11:38:52;99403.03;;;27.84;32.72
34177;BME280;20450;49.074;9.158;2023-07-02T11:41:21;99409.53;;;27.97;32.32
34177;BME280;20450;49.074;9.158;2023-07-02T11:43:49;99405.06;;;26.95;33.23
34177;BME280;20450;49.074;9.158;2023-07-02T11:46:16;99381.94;;;26.83;34.46
34177;BME280;20450;49.074;9.158;2023-07-02T11:48:46;99383.69;;;26.61;34.22
34177;BME280;20450;49.074;9.158;2023-07-02T11:51:13;99376.03;;;26.50;35.70
34177;BME280;20450;49.074;9.158;2023-07-02T11:53:40;99381.41;;;27.06;34.89
34177;BME280;20450;49.074;9.158;2023-07-02T11:56:07;99384.47;;;27.13;34.96
34177;BME280;20450;49.074;9.158;2023-07-02T11:58:35;99381.31;;;27.49;34.30
34177;BME280;20450;49.074;9.158;2023-07-02T12:01:02;99375.16;;;27.26;34.71
34177;BME280;20450;49.074;9.158;2023-07-02T12:03:29;99381.00;;;27.42;34.04
34177;BME280;20450;49.074;9.158;2023-07-02T12:05:57;99375.47;;;27.42;34.19
34177;BME280;20450;49.074;9.158;2023-07-02T12:08:24;99383.59;;;27.84;33.97
34177;BME280;20450;49.074;9.158;2023-07-02T12:10:52;99376.25;;;27.51;34.06
34177;BME280;20450;49.074;9.158;2023-07-02T12:13:20;99369.94;;;27.25;33.78
34177;BME280;20450;49.074;9.158;2023-07-02T12:15:47;99370.13;;;27.28;32.91
34177;BME280;20450;49.074;9.158;2023-07-02T12:18:15;99368.78;;;27.17;33.39
34177;BME280;20450;49.074;9.158;2023-07-02T12:20:42;99380.88;;;27.13;33.40
34177;BME280;20450;49.074;9.158;2023-07-02T12:23:11;99363.97;;;26.80;33.90
34177;BME280;20450;49.074;9.158;2023-07-02T12:25:38;99359.53;;;26.19;34.61
34177;BME280;20450;49.074;9.158;2023-07-02T12:28:06;99359.34;;;26.07;34.98
34177;BME280;20450;49.074;9.158;2023-07-02T12:30:33;99355.63;;;26.20;34.81
34177;BME280;20450;49.074;9.158;2023-07-02T12:33:00;99353.03;;;26.32;35.63
34177;BME280;20450;49.074;9.158;2023-07-02T12:35:27;99352.88;;;26.29;36.07
34177;BME280;20450;49.074;9.158;2023-07-02T12:37:54;99361.66;;;26.14;35.62
34177;BME280;20450;49.074;9.158;2023-07-02T12:40:23;99350.22;;;25.98;35.91
34177;BME280;20450;49.074;9.158;2023-07-02T12:42:50;99358.22;;;26.08;36.02
34177;BME280;20450;49.074;9.158;2023-07-02T12:45:17;99355.00;;;26.40;34.83
34177;BME280;20450;49.074;9.158;2023-07-02T12:47:48;99365.41;;;26.52;34.58
34177;BME280;20450;49.074;9.158;2023-07-02T12:50:15;99358.09;;;26.39;34.14
34177;BME280;20450;49.074;9.158;2023-07-02T12:52:43;99364.28;;;26.27;34.24
34177;BME280;20450;49.074;9.158;2023-07-02T12:55:09;99359.38;;;26.24;34.63
34177;BME280;20450;49.074;9.158;2023-07-02T12:57:38;99359.22;;;26.29;35.06
34177;BME280;20450;49.074;9.158;2023-07-02T13:00:06;99361.34;;;26.32;33.77
34177;BME280;20450;49.074;9.158;2023-07-02T13:02:37;99361.47;;;26.10;34.06
34177;BME280;20450;49.074;9.158;2023-07-02T13:05:19;99361.28;;;25.98;34.56
34177;BME280;20450;49.074;9.158;2023-07-02T13:07:49;99359.63;;;25.89;35.04
34177;BME280;20450;49.074;9.158;2023-07-02T13:10:24;99341.84;;;25.81;35.35
34177;BME280;20450;49.074;9.158;2023-07-02T13:12:56;99340.88;;;25.86;35.71
34177;BME280;20450;49.074;9.158;2023-07-02T13:15:32;99340.38;;;25.84;35.13
34177;BME280;20450;49.074;9.158;2023-07-02T13:17:59;99344.22;;;26.13;34.87
34177;BME280;20450;49.074;9.158;2023-07-02T13:20:27;99355.88;;;25.93;34.82
34177;BME280;20450;49.074;9.158;2023-07-02T13:22:54;99357.22;;;26.04;34.46
34177;BME280;20450;49.074;9.158;2023-07-02T13:25:21;99357.88;;;26.01;33.94
34177;BME280;20450;49.074;9.158;2023-07-02T13:27:48;99346.50;;;26.28;34.11
34177;BME280;20450;49.074;9.158;2023-07-02T13:30:16;99365.06;;;26.02;33.54
34177;BME280;20450;49.074;9.158;2023-07-02T13:32:43;99358.19;;;26.00;33.51
34177;BME280;20450;49.074;9.158;2023-07-02T13:35:10;99360.81;;;26.05;33.16
34177;BME280;20450;49.074;9.158;2023-07-02T13:37:37;99353.81;;;26.07;34.19
34177;BME280;20450;49.074;9.158;2023-07-02T13:40:05;99344.88;;;26.10;34.24